sensor_id;sensor_type;location;lat;lon;timestamp;P1;durP1;ratioP1;P2;durP2;ratioP2
35891;SDS011;21993;42.672;23.296;2023-04-24T00:00:20;13.37;;;9.00;;
35891;SDS011;21993;42.672;23.296;2023-04-24T00:02:45;11.73;;;8.70;;
35891;SDS011;21993;42.672;23.296;2023-04-24T00:05:12;13.03;;;8.23;;
35891;SDS011;21993;42.672;23.296;2023-04-24T00:07:39;13.53;;;9.37;;
35891;SDS011;21993;42.672;23.296;2023-04-24T00:10:05;10.17;;;8.70;;
35891;SDS011;21993;42.672;23.296;2023-04-24T00:12:31;10.80;;;8.33;;
35891;SDS011;21993;42.672;23.296;2023-04-24T00:14:57;13.73;;;8.77;;
35891;SDS011;21993;42.672;23.296;2023-04-24T00:17:22;14.43;;;8.90;;
35891;SDS011;21993;42.672;23.296;2023-04-24T00:19:48;15.20;;;9.27;;
35891;SDS011;21993;42.672;23.296;2023-04-24T00:22:16;10.10;;;8.43;;
35891;SDS011;21993;42.672;23.296;2023-04-24T00:24:42;10.37;;;8.20;;
35891;SDS011;21993;42.672;23.296;2023-04-24T00:27:07;13.07;;;9.33;;
35891;SDS011;21993;42.672;23.296;2023-04-24T00:29:33;12.37;;;8.33;;
35891;SDS011;21993;42.672;23.296;2023-04-24T00:31:58;13.43;;;9.17;;
35891;SDS011;21993;42.672;23.296;2023-04-24T00:34:24;12.07;;;9.17;;
35891;SDS011;21993;42.672;23.296;2023-04-24T00:36:49;13.67;;;8.17;;
35891;SDS011;21993;42.672;23.296;2023-04-24T00:39:20;11.07;;;8.20;;
35891;SDS011;21993;42.672;23.296;2023-04-24T00:41:46;9.80;;;7.90;;
35891;SDS011;21993;42.672;23.296;2023-04-24T00:44:13;13.17;;;8.07;;
35891;SDS011;21993;42.672;23.296;2023-04-24T00:46:39;11.70;;;7.63;;
35891;SDS011;21993;42.672;23.296;2023-04-24T00:49:05;13.23;;;7.70;;
35891;SDS011;21993;42.672;23.296;2023-04-24T00:51:31;13.13;;;8.30;;
35891;SDS011;21993;42.672;23.296;2023-04-24T00:53:57;9.63;;;7.63;;
35891;SDS011;21993;42.672;23.296;2023-04-24T00:56:23;9.23;;;7.47;;
35891;SDS011;21993;42.672;23.296;2023-04-24T00:58:49;12.07;;;8.07;;
35891;SDS011;21993;42.672;23.296;2023-04-24T01:01:14;9.93;;;7.30;;
35891;SDS011;21993;42.672;23.296;2023-04-24T01:03:40;11.50;;;7.93;;
35891;SDS011;21993;42.672;23.296;2023-04-24T01:06:06;11.97;;;7.63;;
35891;SDS011;21993;42.672;23.296;2023-04-24T01:08:32;11.00;;;7.97;;
35891;SDS011;21993;42.672;23.296;2023-04-24T01:10:59;11.07;;;8.97;;
35891;SDS011;21993;42.672;23.296;2023-04-24T01:13:28;8.70;;;6.83;;
35891;SDS011;21993;42.672;23.296;2023-04-24T01:15:54;7.93;;;7.07;;
35891;SDS011;21993;42.672;23.296;2023-04-24T01:18:19;11.97;;;7.27;;
35891;SDS011;21993;42.672;23.296;2023-04-24T01:20:46;9.43;;;6.63;;
35891;SDS011;21993;42.672;23.296;2023-04-24T01:23:15;8.87;;;6.50;;
35891;SDS011;21993;42.672;23.296;2023-04-24T01:25:42;13.37;;;6.70;;
35891;SDS011;21993;42.672;23.296;2023-04-24T01:28:08;7.53;;;6.70;;
35891;SDS011;21993;42.672;23.296;2023-04-24T01:30:33;13.30;;;6.40;;
35891;SDS011;21993;42.672;23.296;2023-04-24T01:32:59;7.43;;;6.40;;
35891;SDS011;21993;42.672;23.296;2023-04-24T01:35:25;9.83;;;6.23;;
35891;SDS011;21993;42.672;23.296;2023-04-24T01:37:51;11.27;;;6.57;;
35891;SDS011;21993;42.672;23.296;2023-04-24T01:40:16;6.70;;;5.90;;
35891;SDS011;21993;42.672;23.296;2023-04-24T01:42:41;9.20;;;6.03;;
35891;SDS011;21993;42.672;23.296;2023-04-24T01:45:07;9.33;;;5.57;;
35891;SDS011;21993;42.672;23.296;2023-04-24T01:47:36;8.53;;;6.27;;
35891;SDS011;21993;42.672;23.296;2023-04-24T01:50:01;8.67;;;6.83;;
35891;SDS011;21993;42.672;23.296;2023-04-24T01:52:28;8.03;;;6.40;;
35891;SDS011;21993;42.672;23.296;2023-04-24T01:54:56;6.50;;;5.80;;
35891;SDS011;21993;42.672;23.296;2023-04-24T01:57:24;10.83;;;6.47;;
35891;SDS011;21993;42.672;23.296;2023-04-24T01:59:50;9.00;;;6.10;;
35891;SDS011;21993;42.672;23.296;2023-04-24T02:02:16;8.07;;;6.27;;
35891;SDS011;21993;42.672;23.296;2023-04-24T02:04:41;7.07;;;6.20;;
35891;SDS011;21993;42.672;23.296;2023-04-24T02:07:07;9.20;;;5.63;;
35891;SDS011;21993;42.672;23.296;2023-04-24T02:09:32;7.47;;;6.07;;
35891;SDS011;21993;42.672;23.296;2023-04-24T02:11:58;11.73;;;5.97;;
35891;SDS011;21993;42.672;23.296;2023-04-24T02:14:23;8.57;;;6.17;;
35891;SDS011;21993;42.672;23.296;2023-04-24T02:16:49;7.97;;;6.07;;
35891;SDS011;21993;42.672;23.296;2023-04-24T02:19:14;11.10;;;6.40;;
35891;SDS011;21993;42.672;23.296;2023-04-24T02:21:40;8.60;;;5.30;;
35891;SDS011;21993;42.672;23.296;2023-04-24T02:24:06;8.33;;;6.17;;
35891;SDS011;21993;42.672;23.296;2023-04-24T02:26:31;9.67;;;6.10;;
35891;SDS011;21993;42.672;23.296;2023-04-24T02:28:57;8.97;;;6.57;;
35891;SDS011;21993;42.672;23.296;2023-04-24T02:31:22;9.43;;;5.73;;
35891;SDS011;21993;42.672;23.296;2023-04-24T02:33:48;9.13;;;5.97;;
35891;SDS011;21993;42.672;23.296;2023-04-24T02:36:13;9.07;;;6.13;;
35891;SDS011;21993;42.672;23.296;2023-04-24T02:38:39;10.60;;;7.20;;
35891;SDS011;21993;42.672;23.296;2023-04-24T02:41:04;10.97;;;6.40;;
35891;SDS011;21993;42.672;23.296;2023-04-24T02:43:31;10.60;;;6.90;;
35891;SDS011;21993;42.672;23.296;2023-04-24T02:45:57;11.17;;;7.17;;
35891;SDS011;21993;42.672;23.296;2023-04-24T02:48:23;10.17;;;7.43;;
35891;SDS011;21993;42.672;23.296;2023-04-24T02:50:48;8.90;;;6.23;;
35891;SDS011;21993;42.672;23.296;2023-04-24T02:53:14;11.70;;;6.53;;
35891;SDS011;21993;42.672;23.296;2023-04-24T02:55:39;8.30;;;6.10;;
35891;SDS011;21993;42.672;23.296;2023-04-24T02:58:05;8.43;;;6.20;;
35891;SDS011;21993;42.672;23.296;2023-04-24T03:00:31;12.13;;;6.63;;
35891;SDS011;21993;42.672;23.296;2023-04-24T03:02:56;8.70;;;6.70;;
35891;SDS011;21993;42.672;23.296;2023-04-24T03:05:22;8.77;;;6.57;;
35891;SDS011;21993;42.672;23.296;2023-04-24T03:07:47;9.10;;;6.53;;
35891;SDS011;21993;42.672;23.296;2023-04-24T03:10:12;11.43;;;6.53;;
35891;SDS011;21993;42.672;23.296;2023-04-24T03:12:38;12.60;;;8.63;;
35891;SDS011;21993;42.672;23.296;2023-04-24T03:15:03;12.33;;;8.43;;
35891;SDS011;21993;42.672;23.296;2023-04-24T03:17:29;11.27;;;7.97;;
35891;SDS011;21993;42.672;23.296;2023-04-24T03:19:55;13.20;;;8.40;;
35891;SDS011;21993;42.672;23.296;2023-04-24T03:22:20;14.50;;;8.20;;
35891;SDS011;21993;42.672;23.296;2023-04-24T03:24:45;15.03;;;9.10;;
35891;SDS011;21993;42.672;23.296;2023-04-24T03:27:11;13.67;;;9.77;;
35891;SDS011;21993;42.672;23.296;2023-04-24T03:29:36;12.53;;;9.13;;
35891;SDS011;21993;42.672;23.296;2023-04-24T03:32:01;11.93;;;9.23;;
35891;SDS011;21993;42.672;23.296;2023-04-24T03:34:27;13.70;;;9.37;;
35891;SDS011;21993;42.672;23.296;2023-04-24T03:36:53;16.00;;;10.13;;
35891;SDS011;21993;42.672;23.296;2023-04-24T03:39:18;17.40;;;9.10;;
35891;SDS011;21993;42.672;23.296;2023-04-24T03:41:43;14.60;;;9.10;;
35891;SDS011;21993;42.672;23.296;2023-04-24T03:44:09;12.93;;;9.17;;
35891;SDS011;21993;42.672;23.296;2023-04-24T03:46:34;16.80;;;9.63;;
35891;SDS011;21993;42.672;23.296;2023-04-24T03:49:00;14.50;;;9.20;;
35891;SDS011;21993;42.672;23.296;2023-04-24T03:51:25;16.53;;;10.07;;
35891;SDS011;21993;42.672;23.296;2023-04-24T03:53:52;11.07;;;8.63;;
35891;SDS011;21993;42.672;23.296;2023-04-24T03:56:18;13.13;;;8.77;;
35891;SDS011;21993;42.672;23.296;2023-04-24T03:58:44;13.50;;;9.00;;
35891;SDS011;21993;42.672;23.296;2023-04-24T04:01:10;14.60;;;9.40;;
35891;SDS011;21993;42.672;23.296;2023-04-24T04:03:36;12.17;;;9.07;;
35891;SDS011;21993;42.672;23.296;2023-04-24T04:06:02;11.80;;;8.17;;
35891;SDS011;21993;42.672;23.296;2023-04-24T04:08:27;13.27;;;8.80;;
35891;SDS011;21993;42.672;23.296;2023-04-24T04:10:52;15.03;;;9.50;;
35891;SDS011;21993;42.672;23.296;2023-04-24T04:13:18;11.43;;;8.67;;
35891;SDS011;21993;42.672;23.296;2023-04-24T04:15:43;15.57;;;9.07;;
35891;SDS011;21993;42.672;23.296;2023-04-24T04:18:09;10.63;;;7.70;;
35891;SDS011;21993;42.672;23.296;2023-04-24T04:20:34;14.90;;;8.43;;
35891;SDS011;21993;42.672;23.296;2023-04-24T04:23:00;13.90;;;10.03;;
35891;SDS011;21993;42.672;23.296;2023-04-24T04:25:25;23.70;;;15.93;;
35891;SDS011;21993;42.672;23.296;2023-04-24T04:27:51;26.63;;;17.20;;
35891;SDS011;21993;42.672;23.296;2023-04-24T04:30:17;12.53;;;9.43;;
35891;SDS011;21993;42.672;23.296;2023-04-24T04:32:43;17.40;;;9.80;;
35891;SDS011;21993;42.672;23.296;2023-04-24T04:35:08;14.23;;;8.30;;
35891;SDS011;21993;42.672;23.296;2023-04-24T04:37:35;15.67;;;9.50;;
35891;SDS011;21993;42.672;23.296;2023-04-24T04:40:00;13.87;;;9.20;;
35891;SDS011;21993;42.672;23.296;2023-04-24T04:42:31;13.67;;;8.77;;
35891;SDS011;21993;42.672;23.296;2023-04-24T04:44:59;11.23;;;8.00;;
35891;SDS011;21993;42.672;23.296;2023-04-24T04:47:27;15.30;;;8.50;;
35891;SDS011;21993;42.672;23.296;2023-04-24T04:49:53;13.57;;;8.43;;
35891;SDS011;21993;42.672;23.296;2023-04-24T04:52:19;10.43;;;8.03;;
35891;SDS011;21993;42.672;23.296;2023-04-24T04:54:45;11.70;;;8.33;;
35891;SDS011;21993;42.672;23.296;2023-04-24T04:57:11;11.33;;;7.27;;
35891;SDS011;21993;42.672;23.296;2023-04-24T04:59:37;7.83;;;6.10;;
35891;SDS011;21993;42.672;23.296;2023-04-24T05:02:02;10.07;;;6.67;;
35891;SDS011;21993;42.672;23.296;2023-04-24T05:04:28;7.53;;;5.90;;
35891;SDS011;21993;42.672;23.296;2023-04-24T05:06:53;6.33;;;5.57;;
35891;SDS011;21993;42.672;23.296;2023-04-24T05:09:19;10.03;;;7.33;;
35891;SDS011;21993;42.672;23.296;2023-04-24T05:11:44;7.87;;;5.20;;
35891;SDS011;21993;42.672;23.296;2023-04-24T05:14:10;6.53;;;5.83;;
35891;SDS011;21993;42.672;23.296;2023-04-24T05:16:37;5.83;;;5.33;;
35891;SDS011;21993;42.672;23.296;2023-04-24T05:19:03;7.97;;;5.90;;
35891;SDS011;21993;42.672;23.296;2023-04-24T05:21:28;7.47;;;5.73;;
35891;SDS011;21993;42.672;23.296;2023-04-24T05:23:54;11.03;;;6.10;;
35891;SDS011;21993;42.672;23.296;2023-04-24T05:26:19;12.60;;;6.47;;
35891;SDS011;21993;42.672;23.296;2023-04-24T05:28:45;8.93;;;6.03;;
35891;SDS011;21993;42.672;23.296;2023-04-24T05:31:10;6.60;;;5.07;;
35891;SDS011;21993;42.672;23.296;2023-04-24T05:33:37;11.63;;;6.47;;
35891;SDS011;21993;42.672;23.296;2023-04-24T05:36:03;10.47;;;6.27;;
35891;SDS011;21993;42.672;23.296;2023-04-24T05:38:30;8.37;;;6.67;;
35891;SDS011;21993;42.672;23.296;2023-04-24T05:40:56;9.20;;;6.20;;
35891;SDS011;21993;42.672;23.296;2023-04-24T05:43:21;12.40;;;7.23;;
35891;SDS011;21993;42.672;23.296;2023-04-24T05:45:47;8.70;;;7.03;;
35891;SDS011;21993;42.672;23.296;2023-04-24T05:48:12;9.40;;;6.90;;
35891;SDS011;21993;42.672;23.296;2023-04-24T05:50:38;9.90;;;6.97;;
35891;SDS011;21993;42.672;23.296;2023-04-24T05:53:03;17.23;;;8.07;;
35891;SDS011;21993;42.672;23.296;2023-04-24T05:55:30;11.70;;;6.93;;
35891;SDS011;21993;42.672;23.296;2023-04-24T05:57:55;9.50;;;6.70;;
35891;SDS011;21993;42.672;23.296;2023-04-24T06:00:21;12.27;;;7.47;;
35891;SDS011;21993;42.672;23.296;2023-04-24T06:02:46;16.57;;;8.67;;
35891;SDS011;21993;42.672;23.296;2023-04-24T06:05:12;12.47;;;7.43;;
35891;SDS011;21993;42.672;23.296;2023-04-24T06:07:37;12.03;;;7.80;;
35891;SDS011;21993;42.672;23.296;2023-04-24T06:10:03;11.83;;;7.87;;
35891;SDS011;21993;42.672;23.296;2023-04-24T06:12:29;11.07;;;7.90;;
35891;SDS011;21993;42.672;23.296;2023-04-24T06:14:54;12.80;;;7.70;;
35891;SDS011;21993;42.672;23.296;2023-04-24T06:17:20;14.70;;;7.93;;
35891;SDS011;21993;42.672;23.296;2023-04-24T06:19:46;14.60;;;8.07;;
35891;SDS011;21993;42.672;23.296;2023-04-24T06:22:23;13.33;;;8.53;;
35891;SDS011;21993;42.672;23.296;2023-04-24T06:24:49;9.53;;;7.23;;
35891;SDS011;21993;42.672;23.296;2023-04-24T06:27:14;13.53;;;8.20;;
35891;SDS011;21993;42.672;23.296;2023-04-24T06:29:39;13.17;;;8.20;;
35891;SDS011;21993;42.672;23.296;2023-04-24T06:32:05;11.20;;;8.33;;
35891;SDS011;21993;42.672;23.296;2023-04-24T06:34:30;10.40;;;7.40;;
35891;SDS011;21993;42.672;23.296;2023-04-24T06:36:57;9.37;;;8.07;;
35891;SDS011;21993;42.672;23.296;2023-04-24T06:39:23;11.33;;;7.80;;
35891;SDS011;21993;42.672;23.296;2023-04-24T06:41:48;13.50;;;8.50;;
35891;SDS011;21993;42.672;23.296;2023-04-24T06:44:15;11.40;;;7.00;;
35891;SDS011;21993;42.672;23.296;2023-04-24T06:46:40;11.63;;;8.47;;
35891;SDS011;21993;42.672;23.296;2023-04-24T06:49:06;13.03;;;8.87;;
35891;SDS011;21993;42.672;23.296;2023-04-24T06:51:32;12.13;;;8.40;;
35891;SDS011;21993;42.672;23.296;2023-04-24T06:53:58;13.73;;;9.10;;
35891;SDS011;21993;42.672;23.296;2023-04-24T06:56:24;17.83;;;9.70;;
35891;SDS011;21993;42.672;23.296;2023-04-24T06:58:50;13.70;;;8.33;;
35891;SDS011;21993;42.672;23.296;2023-04-24T07:01:16;12.50;;;8.70;;
35891;SDS011;21993;42.672;23.296;2023-04-24T07:03:42;15.47;;;8.93;;
35891;SDS011;21993;42.672;23.296;2023-04-24T07:06:08;14.03;;;8.57;;
35891;SDS011;21993;42.672;23.296;2023-04-24T07:08:35;13.70;;;9.47;;
35891;SDS011;21993;42.672;23.296;2023-04-24T07:11:00;13.60;;;9.03;;
35891;SDS011;21993;42.672;23.296;2023-04-24T07:13:26;13.63;;;8.83;;
35891;SDS011;21993;42.672;23.296;2023-04-24T07:15:53;17.30;;;10.80;;
35891;SDS011;21993;42.672;23.296;2023-04-24T07:18:20;13.87;;;9.00;;
35891;SDS011;21993;42.672;23.296;2023-04-24T07:20:46;15.20;;;9.47;;
35891;SDS011;21993;42.672;23.296;2023-04-24T07:23:11;15.30;;;9.80;;
35891;SDS011;21993;42.672;23.296;2023-04-24T07:25:37;13.00;;;9.97;;
35891;SDS011;21993;42.672;23.296;2023-04-24T07:28:03;13.33;;;8.83;;
35891;SDS011;21993;42.672;23.296;2023-04-24T07:30:29;16.67;;;9.67;;
35891;SDS011;21993;42.672;23.296;2023-04-24T07:32:55;12.70;;;8.90;;
35891;SDS011;21993;42.672;23.296;2023-04-24T07:35:21;12.90;;;9.23;;
35891;SDS011;21993;42.672;23.296;2023-04-24T07:37:46;10.23;;;7.40;;
35891;SDS011;21993;42.672;23.296;2023-04-24T07:40:12;11.20;;;7.10;;
35891;SDS011;21993;42.672;23.296;2023-04-24T07:42:38;9.13;;;7.20;;
35891;SDS011;21993;42.672;23.296;2023-04-24T07:45:04;10.07;;;7.40;;
35891;SDS011;21993;42.672;23.296;2023-04-24T07:47:30;10.67;;;7.60;;
35891;SDS011;21993;42.672;23.296;2023-04-24T07:49:56;9.70;;;7.40;;
35891;SDS011;21993;42.672;23.296;2023-04-24T07:52:21;12.33;;;7.77;;
35891;SDS011;21993;42.672;23.296;2023-04-24T07:54:47;8.83;;;6.57;;
35891;SDS011;21993;42.672;23.296;2023-04-24T07:57:14;15.43;;;6.20;;
35891;SDS011;21993;42.672;23.296;2023-04-24T07:59:39;12.70;;;6.90;;
35891;SDS011;21993;42.672;23.296;2023-04-24T08:02:05;8.07;;;6.40;;
35891;SDS011;21993;42.672;23.296;2023-04-24T08:04:31;7.30;;;6.60;;
35891;SDS011;21993;42.672;23.296;2023-04-24T08:06:57;9.50;;;6.73;;
35891;SDS011;21993;42.672;23.296;2023-04-24T08:09:22;10.80;;;6.80;;
35891;SDS011;21993;42.672;23.296;2023-04-24T08:11:48;11.00;;;7.23;;
35891;SDS011;21993;42.672;23.296;2023-04-24T08:14:13;12.87;;;6.50;;
35891;SDS011;21993;42.672;23.296;2023-04-24T08:16:39;11.20;;;6.73;;
35891;SDS011;21993;42.672;23.296;2023-04-24T08:19:05;11.47;;;6.87;;
35891;SDS011;21993;42.672;23.296;2023-04-24T08:21:31;19.77;;;8.67;;
35891;SDS011;21993;42.672;23.296;2023-04-24T08:23:57;8.63;;;6.83;;
35891;SDS011;21993;42.672;23.296;2023-04-24T08:26:22;13.40;;;7.40;;
35891;SDS011;21993;42.672;23.296;2023-04-24T08:28:48;9.37;;;6.70;;
35891;SDS011;21993;42.672;23.296;2023-04-24T08:31:13;11.73;;;7.70;;
35891;SDS011;21993;42.672;23.296;2023-04-24T08:33:39;10.60;;;7.37;;
35891;SDS011;21993;42.672;23.296;2023-04-24T08:36:06;9.13;;;6.80;;
35891;SDS011;21993;42.672;23.296;2023-04-24T08:38:31;8.70;;;6.80;;
35891;SDS011;21993;42.672;23.296;2023-04-24T08:41:00;10.40;;;6.47;;
35891;SDS011;21993;42.672;23.296;2023-04-24T08:43:26;11.03;;;7.37;;
35891;SDS011;21993;42.672;23.296;2023-04-24T08:45:52;12.03;;;7.93;;
35891;SDS011;21993;42.672;23.296;2023-04-24T08:48:20;7.37;;;6.63;;
35891;SDS011;21993;42.672;23.296;2023-04-24T08:50:47;10.97;;;6.77;;
35891;SDS011;21993;42.672;23.296;2023-04-24T08:53:15;12.87;;;7.43;;
35891;SDS011;21993;42.672;23.296;2023-04-24T08:55:40;10.77;;;7.43;;
35891;SDS011;21993;42.672;23.296;2023-04-24T08:58:07;9.07;;;6.17;;
35891;SDS011;21993;42.672;23.296;2023-04-24T09:00:33;9.60;;;6.87;;
35891;SDS011;21993;42.672;23.296;2023-04-24T09:03:00;9.07;;;6.30;;
35891;SDS011;21993;42.672;23.296;2023-04-24T09:05:26;12.63;;;6.67;;
35891;SDS011;21993;42.672;23.296;2023-04-24T09:07:55;8.73;;;6.53;;
35891;SDS011;21993;42.672;23.296;2023-04-24T09:10:23;11.83;;;7.37;;
35891;SDS011;21993;42.672;23.296;2023-04-24T09:12:50;11.30;;;7.70;;
35891;SDS011;21993;42.672;23.296;2023-04-24T09:15:16;8.63;;;6.20;;
35891;SDS011;21993;42.672;23.296;2023-04-24T09:17:43;7.23;;;6.40;;
35891;SDS011;21993;42.672;23.296;2023-04-24T09:20:09;10.57;;;6.73;;
35891;SDS011;21993;42.672;23.296;2023-04-24T09:22:36;8.50;;;6.33;;
35891;SDS011;21993;42.672;23.296;2023-04-24T09:25:06;10.10;;;6.87;;
35891;SDS011;21993;42.672;23.296;2023-04-24T09:27:33;10.83;;;6.60;;
35891;SDS011;21993;42.672;23.296;2023-04-24T09:29:59;9.37;;;6.60;;
35891;SDS011;21993;42.672;23.296;2023-04-24T09:32:25;8.77;;;7.07;;
35891;SDS011;21993;42.672;23.296;2023-04-24T09:35:08;10.10;;;6.27;;
35891;SDS011;21993;42.672;23.296;2023-04-24T09:37:41;8.83;;;6.40;;
35891;SDS011;21993;42.672;23.296;2023-04-24T09:40:18;9.37;;;6.50;;
35891;SDS011;21993;42.672;23.296;2023-04-24T09:42:52;8.90;;;6.23;;
35891;SDS011;21993;42.672;23.296;2023-04-24T09:45:18;10.97;;;6.53;;
35891;SDS011;21993;42.672;23.296;2023-04-24T09:47:44;8.60;;;5.90;;
35891;SDS011;21993;42.672;23.296;2023-04-24T09:50:11;7.50;;;6.27;;
35891;SDS011;21993;42.672;23.296;2023-04-24T09:52:45;10.13;;;6.50;;
35891;SDS011;21993;42.672;23.296;2023-04-24T09:55:16;9.60;;;5.83;;
35891;SDS011;21993;42.672;23.296;2023-04-24T09:57:53;8.50;;;6.20;;
35891;SDS011;21993;42.672;23.296;2023-04-24T10:00:30;7.97;;;5.90;;
35891;SDS011;21993;42.672;23.296;2023-04-24T10:03:00;8.07;;;5.97;;
35891;SDS011;21993;42.672;23.296;2023-04-24T10:05:34;8.07;;;5.53;;
35891;SDS011;21993;42.672;23.296;2023-04-24T10:08:04;9.20;;;6.30;;
35891;SDS011;21993;42.672;23.296;2023-04-24T10:10:31;7.87;;;5.83;;
35891;SDS011;21993;42.672;23.296;2023-04-24T10:12:58;8.63;;;5.10;;
35891;SDS011;21993;42.672;23.296;2023-04-24T10:15:24;6.97;;;5.60;;
35891;SDS011;21993;42.672;23.296;2023-04-24T10:17:51;7.73;;;5.40;;
35891;SDS011;21993;42.672;23.296;2023-04-24T10:20:29;9.83;;;4.73;;
35891;SDS011;21993;42.672;23.296;2023-04-24T10:22:58;9.40;;;5.50;;
35891;SDS011;21993;42.672;23.296;2023-04-24T10:25:28;6.23;;;4.80;;
35891;SDS011;21993;42.672;23.296;2023-04-24T10:27:56;7.33;;;5.30;;
35891;SDS011;21993;42.672;23.296;2023-04-24T10:30:24;6.27;;;4.97;;
35891;SDS011;21993;42.672;23.296;2023-04-24T10:32:50;6.47;;;5.37;;
35891;SDS011;21993;42.672;23.296;2023-04-24T10:35:16;6.40;;;5.00;;
35891;SDS011;21993;42.672;23.296;2023-04-24T10:37:47;7.73;;;5.73;;
35891;SDS011;21993;42.672;23.296;2023-04-24T10:40:19;6.23;;;5.03;;
35891;SDS011;21993;42.672;23.296;2023-04-24T10:42:51;8.10;;;4.60;;
35891;SDS011;21993;42.672;23.296;2023-04-24T10:45:20;5.90;;;4.60;;
35891;SDS011;21993;42.672;23.296;2023-04-24T10:48:06;7.67;;;5.90;;
35891;SDS011;21993;42.672;23.296;2023-04-24T10:50:42;7.63;;;4.90;;
35891;SDS011;21993;42.672;23.296;2023-04-24T10:53:16;6.10;;;4.60;;
35891;SDS011;21993;42.672;23.296;2023-04-24T10:56:15;9.20;;;5.10;;
35891;SDS011;21993;42.672;23.296;2023-04-24T10:58:42;7.33;;;4.97;;
35891;SDS011;21993;42.672;23.296;2023-04-24T11:01:27;5.67;;;4.67;;
35891;SDS011;21993;42.672;23.296;2023-04-24T11:03:57;4.33;;;3.93;;
35891;SDS011;21993;42.672;23.296;2023-04-24T11:06:28;5.23;;;4.67;;
35891;SDS011;21993;42.672;23.296;2023-04-24T11:08:59;6.10;;;3.93;;
35891;SDS011;21993;42.672;23.296;2023-04-24T11:11:31;4.63;;;4.23;;
35891;SDS011;21993;42.672;23.296;2023-04-24T11:19:06;6.33;;;4.53;;
35891;SDS011;21993;42.672;23.296;2023-04-24T11:21:42;10.43;;;5.77;;
35891;SDS011;21993;42.672;23.296;2023-04-24T11:37:47;4.90;;;4.40;;
35891;SDS011;21993;42.672;23.296;2023-04-24T11:40:17;4.20;;;3.90;;
35891;SDS011;21993;42.672;23.296;2023-04-24T11:42:46;6.10;;;3.87;;
35891;SDS011;21993;42.672;23.296;2023-04-24T11:45:23;4.53;;;4.13;;
35891;SDS011;21993;42.672;23.296;2023-04-24T11:47:50;5.20;;;4.70;;
35891;SDS011;21993;42.672;23.296;2023-04-24T11:50:17;5.13;;;4.63;;
35891;SDS011;21993;42.672;23.296;2023-04-24T11:52:44;5.27;;;4.77;;
35891;SDS011;21993;42.672;23.296;2023-04-24T11:57:42;5.67;;;4.70;;
35891;SDS011;21993;42.672;23.296;2023-04-24T12:00:14;6.80;;;5.03;;
35891;SDS011;21993;42.672;23.296;2023-04-24T12:02:41;7.63;;;4.70;;
35891;SDS011;21993;42.672;23.296;2023-04-24T12:05:07;8.30;;;5.37;;
35891;SDS011;21993;42.672;23.296;2023-04-24T12:07:36;8.97;;;5.70;;
35891;SDS011;21993;42.672;23.296;2023-04-24T12:10:07;4.70;;;4.30;;
35891;SDS011;21993;42.672;23.296;2023-04-24T12:12:34;4.37;;;4.00;;
35891;SDS011;21993;42.672;23.296;2023-04-24T12:14:59;6.87;;;4.77;;
35891;SDS011;21993;42.672;23.296;2023-04-24T12:17:30;5.73;;;4.20;;
35891;SDS011;21993;42.672;23.296;2023-04-24T12:20:03;5.57;;;4.90;;
35891;SDS011;21993;42.672;23.296;2023-04-24T12:22:43;6.83;;;4.50;;
35891;SDS011;21993;42.672;23.296;2023-04-24T12:25:14;7.23;;;5.53;;
35891;SDS011;21993;42.672;23.296;2023-04-24T12:27:41;6.63;;;5.03;;
35891;SDS011;21993;42.672;23.296;2023-04-24T12:30:10;5.63;;;4.10;;
35891;SDS011;21993;42.672;23.296;2023-04-24T12:32:41;5.43;;;4.93;;
35891;SDS011;21993;42.672;23.296;2023-04-24T12:35:08;7.73;;;4.40;;
35891;SDS011;21993;42.672;23.296;2023-04-24T12:37:33;4.10;;;3.70;;
35891;SDS011;21993;42.672;23.296;2023-04-24T12:40:02;4.03;;;3.70;;
35891;SDS011;21993;42.672;23.296;2023-04-24T12:42:32;6.73;;;3.77;;
35891;SDS011;21993;42.672;23.296;2023-04-24T12:45:00;4.83;;;4.43;;
35891;SDS011;21993;42.672;23.296;2023-04-24T12:47:28;4.60;;;4.30;;
35891;SDS011;21993;42.672;23.296;2023-04-24T12:49:54;4.47;;;4.07;;
35891;SDS011;21993;42.672;23.296;2023-04-24T12:52:22;4.47;;;4.10;;
35891;SDS011;21993;42.672;23.296;2023-04-24T12:54:49;7.87;;;4.47;;
35891;SDS011;21993;42.672;23.296;2023-04-24T12:57:15;5.70;;;4.87;;
35891;SDS011;21993;42.672;23.296;2023-04-24T12:59:41;5.90;;;4.60;;
35891;SDS011;21993;42.672;23.296;2023-04-24T13:02:07;5.03;;;4.10;;
35891;SDS011;21993;42.672;23.296;2023-04-24T13:04:33;8.00;;;5.23;;
35891;SDS011;21993;42.672;23.296;2023-04-24T13:06:59;5.10;;;4.60;;
35891;SDS011;21993;42.672;23.296;2023-04-24T13:09:24;5.83;;;4.97;;
35891;SDS011;21993;42.672;23.296;2023-04-24T13:11:50;8.10;;;4.73;;
35891;SDS011;21993;42.672;23.296;2023-04-24T13:14:15;6.00;;;4.67;;
35891;SDS011;21993;42.672;23.296;2023-04-24T13:16:41;4.70;;;4.30;;
35891;SDS011;21993;42.672;23.296;2023-04-24T13:19:06;5.67;;;4.17;;
35891;SDS011;21993;42.672;23.296;2023-04-24T13:21:32;5.87;;;4.50;;
35891;SDS011;21993;42.672;23.296;2023-04-24T13:23:57;5.23;;;4.07;;
35891;SDS011;21993;42.672;23.296;2023-04-24T13:26:23;5.00;;;4.40;;
35891;SDS011;21993;42.672;23.296;2023-04-24T13:28:48;5.30;;;4.10;;
35891;SDS011;21993;42.672;23.296;2023-04-24T13:31:14;4.33;;;3.93;;
35891;SDS011;21993;42.672;23.296;2023-04-24T13:33:39;4.40;;;3.80;;
35891;SDS011;21993;42.672;23.296;2023-04-24T13:36:05;6.90;;;4.07;;
35891;SDS011;21993;42.672;23.296;2023-04-24T13:38:31;4.73;;;4.10;;
35891;SDS011;21993;42.672;23.296;2023-04-24T13:40:56;4.70;;;4.27;;
35891;SDS011;21993;42.672;23.296;2023-04-24T13:43:22;4.30;;;3.90;;
35891;SDS011;21993;42.672;23.296;2023-04-24T13:45:47;7.13;;;4.07;;
35891;SDS011;21993;42.672;23.296;2023-04-24T13:48:13;4.87;;;3.90;;
35891;SDS011;21993;42.672;23.296;2023-04-24T13:50:40;4.37;;;4.00;;
35891;SDS011;21993;42.672;23.296;2023-04-24T13:53:06;6.93;;;4.70;;
35891;SDS011;21993;42.672;23.296;2023-04-24T13:55:32;5.87;;;4.70;;
35891;SDS011;21993;42.672;23.296;2023-04-24T13:57:57;4.40;;;4.00;;
35891;SDS011;21993;42.672;23.296;2023-04-24T14:00:23;6.57;;;4.43;;
35891;SDS011;21993;42.672;23.296;2023-04-24T14:02:48;7.33;;;4.00;;
35891;SDS011;21993;42.672;23.296;2023-04-24T14:05:14;6.83;;;4.33;;
35891;SDS011;21993;42.672;23.296;2023-04-24T14:07:40;5.00;;;3.77;;
35891;SDS011;21993;42.672;23.296;2023-04-24T14:10:06;4.80;;;4.00;;
35891;SDS011;21993;42.672;23.296;2023-04-24T14:12:32;6.00;;;4.20;;
35891;SDS011;21993;42.672;23.296;2023-04-24T14:14:58;5.53;;;4.37;;
35891;SDS011;21993;42.672;23.296;2023-04-24T14:17:23;5.73;;;4.00;;
35891;SDS011;21993;42.672;23.296;2023-04-24T14:19:49;9.00;;;4.23;;
35891;SDS011;21993;42.672;23.296;2023-04-24T14:22:16;5.37;;;4.33;;
35891;SDS011;21993;42.672;23.296;2023-04-24T14:24:42;4.40;;;3.93;;
35891;SDS011;21993;42.672;23.296;2023-04-24T14:27:07;11.10;;;4.40;;
35891;SDS011;21993;42.672;23.296;2023-04-24T14:29:33;6.17;;;4.27;;
35891;SDS011;21993;42.672;23.296;2023-04-24T14:31:58;10.07;;;4.77;;
35891;SDS011;21993;42.672;23.296;2023-04-24T14:34:24;4.83;;;4.37;;
35891;SDS011;21993;42.672;23.296;2023-04-24T14:36:50;8.63;;;5.07;;
35891;SDS011;21993;42.672;23.296;2023-04-24T14:39:15;6.33;;;4.57;;
35891;SDS011;21993;42.672;23.296;2023-04-24T14:41:40;8.20;;;5.30;;
35891;SDS011;21993;42.672;23.296;2023-04-24T14:44:06;5.30;;;4.30;;
35891;SDS011;21993;42.672;23.296;2023-04-24T14:46:31;5.20;;;3.63;;